Time;durP1;ratioP1;P1;durP2;ratioP2;P2;SDS_P1;SDS_P2;PMS_P1;PMS_P2;Temp;Humidity;BMP_temperature;BMP_pressure;BME280_temperature;BME280_humidity;BME280_pressure;Samples;Min_cycle;Max_cycle;Signal;HPM_P1;HPM_P2
2022/05/05 00:01:33;;;;;;;9.13;8.30;;;11.70;99.90;;;;;;5071141;28;20722;-77
2022/05/05 00:04:00;;;;;;;9.37;8.57;;;11.70;99.90;;;;;;5053526;28;20691;-76
2022/05/05 00:06:27;;;;;;;9.20;8.47;;;11.70;99.90;;;;;;5071352;28;20192;-77
2022/05/05 00:08:56;;;;;;;11.23;9.03;;;11.70;99.90;;;;;;5053577;28;20252;-77
2022/05/05 00:14:27;;;;;;;9.10;8.20;;;11.70;99.90;;;;;;5069656;28;20187;-76
2022/05/05 00:16:57;;;;;;;9.53;8.63;;;11.70;99.90;;;;;;5063175;28;20229;-77
2022/05/05 00:19:24;;;;;;;9.67;8.83;;;11.70;99.90;;;;;;5053145;28;20329;-76
2022/05/05 00:21:51;;;;;;;10.00;9.03;;;11.70;99.90;;;;;;5052906;28;20229;-77
2022/05/05 00:24:20;;;;;;;10.27;9.37;;;11.70;99.90;;;;;;5053116;28;20210;-77
2022/05/05 00:26:47;;;;;;;9.87;8.97;;;11.70;99.90;;;;;;5071155;28;20188;-77
2022/05/05 00:29:15;;;;;;;10.77;9.77;;;11.70;99.90;;;;;;5052815;28;20228;-77
2022/05/05 00:31:42;;;;;;;10.77;9.77;;;11.70;99.90;;;;;;5070094;28;20706;-77
2022/05/05 00:34:09;;;;;;;11.20;10.10;;;11.70;99.90;;;;;;5057000;28;20205;-77
2022/05/05 00:36:37;;;;;;;10.00;9.07;;;11.70;99.90;;;;;;5056917;28;20202;-77
2022/05/05 00:39:05;;;;;;;10.20;9.07;;;11.70;99.90;;;;;;5061058;28;20224;-77
2022/05/05 00:41:34;;;;;;;9.60;8.70;;;11.70;99.90;;;;;;5073096;28;20600;-77
2022/05/05 00:44:03;;;;;;;12.67;9.80;;;11.70;99.90;;;;;;5056898;28;20226;-77
2022/05/05 00:46:31;;;;;;;8.80;7.90;;;11.70;99.90;;;;;;5058846;28;20204;-76
2022/05/05 00:48:58;;;;;;;8.67;7.47;;;11.70;99.90;;;;;;5062128;28;20196;-77
2022/05/05 00:51:25;;;;;;;7.13;6.43;;;11.70;99.90;;;;;;5056489;28;20588;-76
2022/05/05 00:53:52;;;;;;;9.33;7.13;;;11.70;99.90;;;;;;5074641;28;20272;-77
2022/05/05 00:56:20;;;;;;;7.60;6.90;;;11.70;99.90;;;;;;5072904;28;20212;-77
2022/05/05 00:58:49;;;;;;;7.83;7.03;;;11.70;99.90;;;;;;5056656;28;20211;-77
2022/05/05 01:01:19;;;;;;;7.53;6.73;;;11.70;99.90;;;;;;5055899;28;20229;-77
2022/05/05 01:03:46;;;;;;;9.07;7.43;;;11.80;99.90;;;;;;5056416;28;20201;-77
2022/05/05 01:06:14;;;;;;;7.50;6.70;;;11.80;99.90;;;;;;5056229;28;20192;-77
2022/05/05 01:08:42;;;;;;;7.83;7.03;;;11.70;99.90;;;;;;5055991;28;20245;-77
2022/05/05 01:11:09;;;;;;;7.63;6.83;;;11.70;99.90;;;;;;5055991;28;20218;-77
2022/05/05 01:13:39;;;;;;;7.97;7.17;;;11.70;99.90;;;;;;5056294;28;20680;-77
2022/05/05 01:16:08;;;;;;;8.33;7.47;;;11.70;99.90;;;;;;5056183;28;20210;-77
2022/05/05 01:18:35;;;;;;;9.20;7.30;;;11.70;99.90;;;;;;5056019;28;20217;-77
2022/05/05 01:21:03;;;;;;;7.53;6.80;;;11.70;99.90;;;;;;5055269;28;20216;-77
2022/05/05 01:23:31;;;;;;;7.90;7.10;;;11.70;99.90;;;;;;5056117;28;20194;-77
2022/05/05 01:28:44;;;;;;;7.47;6.77;;;11.70;99.90;;;;;;5066815;28;20180;-77
2022/05/05 01:31:11;;;;;;;7.90;6.33;;;11.70;99.90;;;;;;5070009;28;20212;-79
2022/05/05 01:33:39;;;;;;;7.67;6.03;;;11.70;99.90;;;;;;5055924;28;20200;-77
2022/05/05 01:36:06;;;;;;;6.30;5.70;;;11.70;99.90;;;;;;5073839;28;20246;-77
2022/05/05 01:38:39;;;;;;;6.00;5.40;;;11.70;99.90;;;;;;5064083;28;20215;-76
2022/05/05 01:41:06;;;;;;;6.73;6.13;;;11.70;99.90;;;;;;5055534;28;20208;-77
2022/05/05 01:43:33;;;;;;;6.83;6.13;;;11.70;99.90;;;;;;5054801;28;20539;-77
2022/05/05 01:46:00;;;;;;;7.00;6.30;;;11.70;99.90;;;;;;5073840;28;20200;-77
2022/05/05 01:48:27;;;;;;;8.93;8.00;;;11.70;99.90;;;;;;5073539;28;20188;-77
2022/05/05 01:50:54;;;;;;;8.23;7.43;;;11.60;99.90;;;;;;5055379;28;20219;-77
2022/05/05 01:53:21;;;;;;;8.60;7.27;;;11.60;99.90;;;;;;5073535;28;20282;-77
2022/05/05 01:55:49;;;;;;;8.17;7.37;;;11.50;99.90;;;;;;5055614;28;20196;-77
2022/05/05 01:58:16;;;;;;;8.40;7.50;;;11.50;99.90;;;;;;5073397;28;20677;-77
2022/05/05 02:00:43;;;;;;;8.40;7.50;;;11.50;99.90;;;;;;5091559;22;20252;-77
2022/05/05 02:03:13;;;;;;;8.10;7.30;;;11.50;99.90;;;;;;5094334;28;20226;-77
2022/05/05 02:05:41;;;;;;;7.90;6.77;;;11.50;99.90;;;;;;5084844;28;20684;-77
2022/05/05 02:08:08;;;;;;;7.37;6.60;;;11.40;99.90;;;;;;5084973;28;20201;-77
2022/05/05 02:10:36;;;;;;;8.10;6.57;;;11.50;99.90;;;;;;5089306;28;20350;-77
2022/05/05 02:13:05;;;;;;;7.87;7.07;;;11.50;99.90;;;;;;5090975;28;20281;-77
2022/05/05 02:15:32;;;;;;;10.00;7.83;;;11.40;99.90;;;;;;5095649;28;20223;-77
2022/05/05 02:18:07;;;;;;;8.40;7.53;;;11.50;99.90;;;;;;5095588;28;20596;-77
2022/05/05 02:20:34;;;;;;;8.10;7.30;;;11.40;99.90;;;;;;5086679;28;20288;-77
2022/05/05 02:23:01;;;;;;;7.17;6.43;;;11.40;99.90;;;;;;5095057;28;20650;-77
2022/05/05 02:25:27;;;;;;;6.93;6.23;;;11.40;99.90;;;;;;5095194;28;20197;-76
2022/05/05 02:27:55;;;;;;;6.97;6.37;;;11.40;99.90;;;;;;5094888;28;20578;-77
2022/05/05 02:30:27;;;;;;;7.60;6.80;;;11.40;99.90;;;;;;5095006;28;20248;-76
2022/05/05 02:32:54;;;;;;;10.53;8.03;;;11.40;99.90;;;;;;5094851;28;20217;-79
2022/05/05 02:35:21;;;;;;;8.50;7.60;;;11.40;99.90;;;;;;5095012;28;20201;-76
2022/05/05 02:40:33;;;;;;;8.13;7.10;;;11.30;99.90;;;;;;5094934;28;20194;-79
2022/05/05 02:43:01;;;;;;;8.20;6.93;;;11.30;99.90;;;;;;5104237;28;20199;-79
2022/05/05 02:45:29;;;;;;;7.70;6.90;;;11.30;99.90;;;;;;5093228;28;20210;-80
2022/05/05 02:47:57;;;;;;;8.10;7.17;;;11.30;99.90;;;;;;5093868;28;20191;-80
2022/05/05 02:50:24;;;;;;;8.37;7.33;;;11.30;99.90;;;;;;5095112;28;20198;-80
2022/05/05 02:52:51;;;;;;;9.73;8.47;;;11.20;99.90;;;;;;5088619;28;20232;-80
2022/05/05 02:55:17;;;;;;;8.97;7.53;;;11.20;99.90;;;;;;5094934;28;20196;-81
2022/05/05 02:57:44;;;;;;;8.97;8.07;;;11.20;99.90;;;;;;5094998;28;20209;-80
2022/05/05 03:00:12;;;;;;;7.97;7.17;;;11.10;99.90;;;;;;5094985;28;20207;-80
2022/05/05 03:02:42;;;;;;;10.13;8.50;;;11.00;99.90;;;;;;5094760;28;20249;-80
2022/05/05 03:05:10;;;;;;;8.80;7.90;;;11.00;99.90;;;;;;5098248;27;20203;-80
2022/05/05 03:07:37;;;;;;;9.40;8.00;;;10.90;99.90;;;;;;5099898;28;20205;-80
2022/05/05 03:10:05;;;;;;;13.00;11.90;;;10.90;99.90;;;;;;5094330;28;20308;-78
2022/05/05 03:12:32;;;;;;;13.67;12.37;;;10.80;99.90;;;;;;5094091;28;20597;-78
2022/05/05 03:15:00;;;;;;;8.60;7.80;;;10.80;99.90;;;;;;5094746;28;20283;-80
2022/05/05 03:17:27;;;;;;;10.77;9.67;;;10.80;99.90;;;;;;5094702;28;20737;-79
2022/05/05 03:19:55;;;;;;;11.10;9.67;;;10.90;99.90;;;;;;5095156;28;20666;-80
2022/05/05 03:22:22;;;;;;;10.33;8.70;;;10.90;99.90;;;;;;5095641;28;20236;-82
2022/05/05 03:24:49;;;;;;;9.97;8.90;;;10.90;99.90;;;;;;5093941;28;20316;-79
2022/05/05 03:27:16;;;;;;;10.60;8.83;;;10.90;99.90;;;;;;5091883;28;20202;-76
2022/05/05 03:29:43;;;;;;;9.87;8.87;;;10.90;99.90;;;;;;5084743;28;20298;-77
2022/05/05 03:32:10;;;;;;;8.50;7.63;;;10.90;99.90;;;;;;5089634;28;20224;-77
2022/05/05 03:34:37;;;;;;;8.80;7.87;;;11.00;99.90;;;;;;5100573;28;20468;-76
2022/05/05 03:37:05;;;;;;;9.13;8.13;;;11.00;99.90;;;;;;5094001;28;20263;-76
2022/05/05 03:39:32;;;;;;;9.20;8.30;;;11.00;99.90;;;;;;5093620;28;20596;-77
2022/05/05 03:41:59;;;;;;;9.27;8.23;;;11.10;99.90;;;;;;5093705;28;20226;-77
2022/05/05 03:44:26;;;;;;;9.63;8.73;;;11.00;99.90;;;;;;5093780;28;20204;-76
2022/05/05 03:46:53;;;;;;;9.93;8.93;;;11.00;99.90;;;;;;5093935;28;20676;-77
2022/05/05 03:49:20;;;;;;;8.97;7.63;;;11.00;99.90;;;;;;5093391;28;20221;-77
2022/05/05 03:51:47;;;;;;;9.27;7.43;;;11.10;99.90;;;;;;5093205;28;20693;-76
2022/05/05 03:54:15;;;;;;;9.50;8.60;;;11.00;99.90;;;;;;5093624;28;20197;-77
2022/05/05 03:56:42;;;;;;;10.20;9.23;;;11.00;99.90;;;;;;5093713;28;20676;-77
2022/05/05 03:59:09;;;;;;;10.30;9.03;;;11.00;99.90;;;;;;5093718;28;20307;-77
2022/05/05 04:01:36;;;;;;;10.10;9.20;;;11.00;99.90;;;;;;5093243;28;20226;-76
2022/05/05 04:04:03;;;;;;;10.57;9.67;;;11.00;99.90;;;;;;5093576;28;20209;-77
2022/05/05 04:06:30;;;;;;;10.33;9.33;;;11.00;99.90;;;;;;5093944;28;20237;-77
2022/05/05 04:08:57;;;;;;;9.77;8.90;;;11.00;99.90;;;;;;5097988;28;20669;-77
2022/05/05 04:11:26;;;;;;;11.47;10.37;;;11.00;99.90;;;;;;5097331;28;20311;-76
2022/05/05 04:13:53;;;;;;;11.33;10.33;;;11.00;99.90;;;;;;5097833;28;20246;-77
2022/05/05 04:16:20;;;;;;;12.17;11.17;;;11.10;99.90;;;;;;5097909;28;20206;-77
2022/05/05 04:18:47;;;;;;;13.67;12.47;;;11.10;99.90;;;;;;5097267;28;20701;-76
2022/05/05 04:21:14;;;;;;;14.20;13.00;;;11.10;99.90;;;;;;5097547;28;20226;-77
2022/05/05 04:23:41;;;;;;;12.67;11.67;;;11.20;99.90;;;;;;5097554;28;20198;-77
2022/05/05 04:26:10;;;;;;;12.40;11.40;;;11.20;99.90;;;;;;5097809;28;20208;-77
2022/05/05 04:28:39;;;;;;;13.23;12.23;;;11.30;99.90;;;;;;5097750;28;20196;-76
2022/05/05 04:31:06;;;;;;;12.87;11.87;;;11.30;99.90;;;;;;5096886;28;20217;-76
2022/05/05 04:33:33;;;;;;;13.30;12.20;;;11.40;99.90;;;;;;5097282;28;20292;-77
2022/05/05 04:36:00;;;;;;;13.17;12.00;;;11.40;99.90;;;;;;5097081;28;20255;-77
2022/05/05 04:38:27;;;;;;;12.17;11.03;;;11.50;99.90;;;;;;5097154;28;20222;-77
2022/05/05 04:40:54;;;;;;;14.47;13.27;;;11.60;99.90;;;;;;5096855;28;20225;-77
2022/05/05 04:43:21;;;;;;;15.83;14.33;;;11.60;99.90;;;;;;5096915;28;20198;-76
2022/05/05 04:45:50;;;;;;;12.10;11.03;;;11.60;99.90;;;;;;5096979;28;20205;-77
2022/05/05 04:48:17;;;;;;;13.87;12.67;;;11.60;99.90;;;;;;5096906;28;20251;-77
2022/05/05 04:50:43;;;;;;;13.60;12.60;;;11.60;99.90;;;;;;5096521;28;20202;-77
2022/05/05 04:53:11;;;;;;;13.50;12.40;;;11.60;99.90;;;;;;5097075;28;20255;-77
2022/05/05 04:55:38;;;;;;;8.00;7.20;;;11.70;99.90;;;;;;5091572;28;20200;-76
2022/05/05 04:58:05;;;;;;;13.50;12.60;;;11.80;99.90;;;;;;5096782;28;20204;-76
2022/05/05 05:00:33;;;;;;;14.57;13.37;;;11.80;99.90;;;;;;5096472;28;20656;-76
2022/05/05 05:03:01;;;;;;;10.30;9.40;;;11.90;99.90;;;;;;5096869;28;20264;-77
2022/05/05 05:05:28;;;;;;;7.83;7.10;;;12.00;99.90;;;;;;5096500;28;20202;-77
2022/05/05 05:07:55;;;;;;;12.57;11.63;;;12.10;99.90;;;;;;5088907;28;20207;-77
2022/05/05 05:10:22;;;;;;;8.17;7.37;;;12.20;99.90;;;;;;5096400;28;20234;-76
2022/05/05 05:12:50;;;;;;;7.80;7.00;;;12.40;99.90;;;;;;5096248;28;20314;-77
2022/05/05 05:15:17;;;;;;;7.73;7.00;;;12.70;99.90;;;;;;5096670;28;20278;-77
2022/05/05 05:17:44;;;;;;;7.97;7.17;;;12.80;99.90;;;;;;5096208;28;20194;-77
2022/05/05 05:20:12;;;;;;;14.33;13.27;;;12.80;99.90;;;;;;5095588;28;20266;-77
2022/05/05 05:22:39;;;;;;;11.60;10.70;;;12.90;99.90;;;;;;5094370;28;20219;-77
2022/05/05 05:25:07;;;;;;;13.87;12.77;;;13.00;99.90;;;;;;5096252;28;20200;-77
2022/05/05 05:27:34;;;;;;;12.63;11.53;;;13.10;99.90;;;;;;5098488;28;20386;-77
2022/05/05 05:30:01;;;;;;;12.13;10.93;;;13.20;99.90;;;;;;5096421;28;20289;-77
2022/05/05 05:32:28;;;;;;;8.70;7.80;;;13.30;99.90;;;;;;5095550;28;20209;-77
2022/05/05 05:34:54;;;;;;;12.60;11.50;;;13.40;99.90;;;;;;5096396;28;20193;-77
2022/05/05 05:37:23;;;;;;;12.80;11.70;;;13.50;99.90;;;;;;5096204;28;20665;-77
2022/05/05 05:39:50;;;;;;;12.10;11.10;;;13.50;99.90;;;;;;5096017;28;20225;-77
2022/05/05 05:42:17;;;;;;;13.53;12.43;;;13.40;99.90;;;;;;5095738;28;20217;-77
2022/05/05 05:44:43;;;;;;;10.90;9.83;;;13.30;99.90;;;;;;5096353;28;20209;-77
2022/05/05 05:47:12;;;;;;;13.90;12.57;;;13.40;99.90;;;;;;5095942;28;20220;-77
2022/05/05 05:49:39;;;;;;;13.60;12.60;;;13.40;99.90;;;;;;5088074;28;20671;-77
2022/05/05 05:52:06;;;;;;;11.13;10.13;;;13.30;99.90;;;;;;5095911;28;20224;-77
2022/05/05 05:54:35;;;;;;;12.90;11.90;;;13.40;99.90;;;;;;5095812;28;20636;-77
2022/05/05 05:57:02;;;;;;;8.57;7.67;;;13.40;99.90;;;;;;5095605;28;20200;-77
2022/05/05 05:59:29;;;;;;;9.00;7.60;;;13.40;99.90;;;;;;5098147;28;20217;-77
2022/05/05 06:04:40;;;;;;;9.10;8.30;;;13.40;99.90;;;;;;5087681;28;20246;-77
2022/05/05 06:07:07;;;;;;;13.20;12.10;;;13.50;99.90;;;;;;5095837;28;20197;-76
2022/05/05 06:09:35;;;;;;;11.57;10.60;;;13.60;99.90;;;;;;5101943;27;20570;-77
2022/05/05 06:12:03;;;;;;;8.27;7.30;;;13.60;99.90;;;;;;5095128;28;20211;-77
2022/05/05 06:14:31;;;;;;;12.90;11.87;;;13.70;99.90;;;;;;5095323;28;20666;-77
2022/05/05 06:16:58;;;;;;;12.43;11.43;;;13.80;99.90;;;;;;5095496;28;20230;-76
2022/05/05 06:19:25;;;;;;;13.20;12.17;;;13.80;99.90;;;;;;5095375;28;20323;-76
2022/05/05 06:21:52;;;;;;;11.40;10.40;;;13.90;99.90;;;;;;5094945;28;20707;-77
2022/05/05 06:24:19;;;;;;;8.23;7.33;;;13.90;99.90;;;;;;5095212;28;20193;-77
2022/05/05 06:26:47;;;;;;;7.57;6.83;;;14.00;99.90;;;;;;5095067;28;20204;-77
2022/05/05 06:29:14;;;;;;;8.17;7.27;;;14.10;99.90;;;;;;5094852;28;20582;-77
2022/05/05 06:31:41;;;;;;;8.07;7.27;;;14.20;99.90;;;;;;5094410;28;20217;-77
2022/05/05 06:34:09;;;;;;;10.33;9.43;;;14.20;99.90;;;;;;5095087;28;20203;-77
2022/05/05 06:36:36;;;;;;;12.83;11.73;;;14.20;99.90;;;;;;5092884;28;20198;-77
2022/05/05 06:39:03;;;;;;;12.73;11.73;;;14.20;99.90;;;;;;5095113;28;20223;-77
2022/05/05 06:41:30;;;;;;;10.53;9.63;;;14.10;99.90;;;;;;5094473;28;20228;-77
2022/05/05 06:43:59;;;;;;;11.80;10.90;;;14.20;99.90;;;;;;5094643;28;20288;-77
2022/05/05 06:46:25;;;;;;;12.60;11.67;;;14.10;99.90;;;;;;5094828;28;20282;-76
2022/05/05 06:48:52;;;;;;;11.53;10.63;;;14.00;99.90;;;;;;5094792;28;20193;-77
2022/05/05 06:51:19;;;;;;;11.80;10.93;;;14.10;99.90;;;;;;5094496;28;20246;-77
2022/05/05 06:53:46;;;;;;;12.70;11.80;;;14.00;99.90;;;;;;5094590;28;20579;-77
2022/05/05 06:56:13;;;;;;;10.00;9.03;;;14.00;99.90;;;;;;5094653;28;20205;-77
2022/05/05 06:58:40;;;;;;;7.40;6.70;;;14.10;99.90;;;;;;5093753;28;20205;-77
2022/05/05 07:05:23;;;;;;;10.83;9.93;;;14.20;99.90;;;;;;5094486;28;20204;-77
2022/05/05 07:06:39;;;;;;;11.43;10.53;;;14.20;99.90;;;;;;5094342;28;20251;-77
2022/05/05 07:11:50;;;;;;;10.20;9.33;;;14.30;99.90;;;;;;5092723;28;20218;-77
2022/05/05 07:14:17;;;;;;;10.13;9.13;;;14.30;99.90;;;;;;5094377;28;20662;-77
2022/05/05 07:16:45;;;;;;;11.90;11.00;;;14.30;99.90;;;;;;5094186;28;20201;-76
2022/05/05 07:19:12;;;;;;;12.57;11.67;;;14.30;99.90;;;;;;5094068;28;20773;-77
2022/05/05 07:21:39;;;;;;;9.53;8.83;;;14.30;99.90;;;;;;5093800;28;20214;-77
2022/05/05 07:24:07;;;;;;;10.80;9.77;;;14.30;99.90;;;;;;5094328;28;20199;-77
2022/05/05 07:26:34;;;;;;;12.70;10.90;;;14.30;99.90;;;;;;5094245;28;20194;-77
2022/05/05 07:29:00;;;;;;;10.13;9.13;;;14.30;99.90;;;;;;5093998;28;20292;-77
2022/05/05 07:31:28;;;;;;;9.87;8.97;;;14.20;99.90;;;;;;5093270;28;20241;-77
2022/05/05 07:33:57;;;;;;;9.00;8.07;;;14.30;99.90;;;;;;5094012;28;20654;-77
2022/05/05 07:36:24;;;;;;;7.87;7.03;;;14.30;99.90;;;;;;5094045;28;20198;-77
2022/05/05 07:38:51;;;;;;;8.90;8.10;;;14.30;99.90;;;;;;5093852;28;20217;-77
2022/05/05 07:41:22;;;;;;;8.10;7.30;;;14.30;99.90;;;;;;5095372;28;20380;-77
2022/05/05 07:43:50;;;;;;;7.83;7.03;;;14.30;99.90;;;;;;5094048;28;20568;-77
2022/05/05 07:46:17;;;;;;;8.73;7.93;;;14.40;99.90;;;;;;5093853;28;20197;-77
2022/05/05 07:48:44;;;;;;;8.47;7.63;;;14.30;99.90;;;;;;5094152;28;20225;-77
2022/05/05 07:51:13;;;;;;;8.63;7.73;;;14.30;99.90;;;;;;5093689;28;20212;-77
2022/05/05 07:53:40;;;;;;;9.67;8.77;;;14.20;99.90;;;;;;5093797;28;20574;-77
2022/05/05 07:56:07;;;;;;;9.43;8.20;;;14.10;99.90;;;;;;5093734;28;20227;-77
2022/05/05 07:58:34;;;;;;;8.00;7.20;;;14.10;99.90;;;;;;5093608;28;20647;-77
2022/05/05 08:03:35;;;;;;;8.73;7.83;;;14.20;99.90;;;;;;5064075;28;20212;-77
2022/05/05 08:06:02;;;;;;;7.90;7.20;;;14.20;99.90;;;;;;5050295;28;20203;-77
2022/05/05 08:08:30;;;;;;;8.17;7.37;;;14.20;99.90;;;;;;5049258;28;20204;-77
2022/05/05 08:10:57;;;;;;;8.73;7.83;;;14.10;99.90;;;;;;5049692;28;20206;-77
2022/05/05 08:13:24;;;;;;;9.30;8.23;;;14.00;99.90;;;;;;5068919;28;20225;-77
2022/05/05 08:15:51;;;;;;;7.90;7.07;;;13.90;99.90;;;;;;5083334;28;20203;-77
2022/05/05 08:18:18;;;;;;;9.77;8.73;;;13.90;99.90;;;;;;5067602;28;20202;-77
2022/05/05 08:20:45;;;;;;;9.03;8.13;;;13.80;99.90;;;;;;5062742;28;20221;-77
2022/05/05 08:23:12;;;;;;;8.83;7.93;;;13.90;99.90;;;;;;5086877;28;20224;-77
2022/05/05 08:28:33;;;;;;;8.57;7.77;;;13.90;99.90;;;;;;5068144;28;20225;-77
2022/05/05 08:31:00;;;;;;;8.73;7.83;;;13.90;99.90;;;;;;5082377;28;20227;-77
2022/05/05 08:33:28;;;;;;;9.43;7.77;;;13.90;99.90;;;;;;5084228;28;20223;-76
2022/05/05 08:35:55;;;;;;;8.83;7.93;;;14.00;99.90;;;;;;5086652;28;20685;-77
2022/05/05 08:38:22;;;;;;;8.40;7.50;;;14.00;99.90;;;;;;5069650;28;20207;-77
2022/05/05 08:40:51;;;;;;;8.23;7.43;;;14.10;99.90;;;;;;5082838;28;20231;-77
2022/05/05 08:43:19;;;;;;;8.00;7.23;;;14.20;99.90;;;;;;5067093;28;20303;-77
2022/05/05 08:45:46;;;;;;;7.37;6.67;;;14.30;99.90;;;;;;5069649;28;20202;-77
2022/05/05 08:48:14;;;;;;;7.57;6.83;;;14.20;99.90;;;;;;5077074;28;20705;-77
2022/05/05 08:50:44;;;;;;;8.53;7.73;;;14.20;99.90;;;;;;5086340;28;20202;-77
2022/05/05 08:53:14;;;;;;;12.30;11.20;;;14.20;99.90;;;;;;5087684;28;20600;-78
2022/05/05 08:55:42;;;;;;;8.93;8.20;;;14.20;99.90;;;;;;5073314;28;20208;-77
2022/05/05 08:58:10;;;;;;;9.47;8.57;;;14.20;99.90;;;;;;5073200;28;20224;-77
2022/05/05 09:00:37;;;;;;;9.90;8.90;;;14.20;99.90;;;;;;5078144;28;20220;-77
2022/05/05 09:03:08;;;;;;;10.07;9.00;;;14.20;99.90;;;;;;5068626;28;20235;-77
2022/05/05 09:05:50;;;;;;;9.83;8.80;;;14.10;99.90;;;;;;5073269;28;20287;-77
2022/05/05 09:08:29;;;;;;;8.87;7.97;;;14.10;99.90;;;;;;5073046;28;20649;-77
2022/05/05 09:10:57;;;;;;;9.30;8.40;;;14.00;99.90;;;;;;5086410;28;20201;-77
2022/05/05 09:13:26;;;;;;;9.57;8.67;;;14.00;99.90;;;;;;5071697;28;20218;-77
2022/05/05 09:15:54;;;;;;;12.10;9.03;;;13.90;99.90;;;;;;5073064;28;20206;-77
2022/05/05 09:18:22;;;;;;;9.20;8.30;;;13.80;99.90;;;;;;5070846;28;20199;-76
2022/05/05 09:20:50;;;;;;;9.57;8.57;;;13.80;99.90;;;;;;5088143;28;20212;-77
2022/05/05 09:23:31;;;;;;;9.63;8.73;;;13.80;99.90;;;;;;5072343;28;20331;-77
2022/05/05 09:25:59;;;;;;;9.73;8.17;;;13.90;99.90;;;;;;5072748;28;20258;-77
2022/05/05 09:28:30;;;;;;;9.00;8.10;;;13.90;99.90;;;;;;5089432;28;20198;-77
2022/05/05 09:31:04;;;;;;;12.40;11.40;;;13.90;99.90;;;;;;5071301;28;20302;-77
2022/05/05 09:33:44;;;;;;;14.93;13.63;;;13.90;99.90;;;;;;5072423;28;20242;-77
2022/05/05 09:36:13;;;;;;;14.70;13.33;;;13.90;99.90;;;;;;5072578;28;20229;-77
2022/05/05 09:38:54;;;;;;;13.90;12.60;;;14.00;99.90;;;;;;5089443;28;20202;-77
2022/05/05 09:41:22;;;;;;;13.13;12.03;;;14.00;99.90;;;;;;5067438;28;20237;-77
2022/05/05 09:43:51;;;;;;;8.97;7.93;;;14.00;99.90;;;;;;5072489;28;20199;-77
2022/05/05 09:46:31;;;;;;;8.67;7.70;;;14.20;99.90;;;;;;5071315;28;20194;-77
2022/05/05 09:49:11;;;;;;;9.33;8.37;;;14.30;99.90;;;;;;5080771;28;20205;-77
2022/05/05 09:51:41;;;;;;;12.50;11.40;;;14.40;99.90;;;;;;5069890;28;20252;-77
2022/05/05 09:59:50;;;;;;;12.87;11.77;;;14.40;99.90;;;;;;5042545;28;20667;-77
2022/05/05 10:05:09;;;;;;;9.70;8.43;;;14.50;99.90;;;;;;5036833;28;20286;-77
2022/05/05 10:07:39;;;;;;;9.73;8.73;;;14.60;99.90;;;;;;5060587;28;20205;-77
2022/05/05 10:10:08;;;;;;;14.33;13.13;;;14.60;99.90;;;;;;5067953;28;20206;-77
2022/05/05 10:12:35;;;;;;;11.60;8.70;;;14.50;99.90;;;;;;5071747;28;20229;-77
2022/05/05 10:15:05;;;;;;;13.27;11.97;;;14.50;99.90;;;;;;5088951;28;20198;-77
2022/05/05 10:17:35;;;;;;;13.93;12.73;;;14.50;99.90;;;;;;5071331;28;20214;-77
2022/05/05 10:20:02;;;;;;;14.60;13.20;;;14.40;99.90;;;;;;5071411;28;20218;-76
2022/05/05 10:22:37;;;;;;;13.50;12.30;;;14.30;99.90;;;;;;5071326;28;20802;-77
2022/05/05 10:25:10;;;;;;;11.47;10.47;;;14.40;99.90;;;;;;5071512;28;20618;-77
2022/05/05 10:27:42;;;;;;;10.53;9.47;;;14.50;99.90;;;;;;5080324;28;20736;-77
2022/05/05 10:30:16;;;;;;;14.30;13.07;;;14.70;99.90;;;;;;5071550;28;20678;-77
2022/05/05 10:32:44;;;;;;;9.90;8.90;;;14.70;99.90;;;;;;5070724;28;20255;-77
2022/05/05 10:35:23;;;;;;;11.60;10.43;;;15.10;99.90;;;;;;5088194;28;20815;-77
2022/05/05 10:37:50;;;;;;;13.97;12.87;;;15.20;99.90;;;;;;5068273;28;20223;-77
2022/05/05 10:40:17;;;;;;;12.23;11.13;;;15.50;99.90;;;;;;5068646;28;20687;-77
2022/05/05 10:42:46;;;;;;;13.63;12.43;;;15.60;99.90;;;;;;5071260;28;20237;-77
2022/05/05 10:45:16;;;;;;;9.43;8.00;;;15.90;99.90;;;;;;5071312;28;20197;-77
2022/05/05 10:48:29;;;;;;;10.60;9.60;;;16.10;99.90;;;;;;5088255;28;20238;-77
2022/05/05 10:51:07;;;;;;;11.40;9.07;;;16.40;99.90;;;;;;5071640;28;20197;-77
2022/05/05 10:53:36;;;;;;;15.57;14.37;;;16.50;99.90;;;;;;5071565;28;20293;-77
2022/05/05 10:56:05;;;;;;;11.57;10.57;;;16.60;99.90;;;;;;5072458;28;20202;-77
2022/05/05 10:59:13;;;;;;;13.47;12.23;;;17.00;99.90;;;;;;5072060;28;20202;-77
2022/05/05 11:02:01;;;;;;;10.53;9.43;;;17.20;99.90;;;;;;5072432;28;20218;-77
2022/05/05 11:04:30;;;;;;;11.60;10.50;;;17.30;99.90;;;;;;5089010;28;20194;-77
2022/05/05 11:07:25;;;;;;;9.57;8.67;;;17.10;99.90;;;;;;5072834;28;20254;-78
2022/05/05 11:09:52;;;;;;;17.83;16.53;;;17.40;99.90;;;;;;5071679;28;20401;-77
2022/05/05 11:12:20;;;;;;;11.40;10.20;;;17.40;99.90;;;;;;5072152;28;20214;-77
2022/05/05 11:23:27;;;;;;;15.67;14.37;;;17.80;99.90;;;;;;5088703;28;20223;-78
2022/05/05 11:25:56;;;;;;;17.80;16.37;;;17.80;99.90;;;;;;5071877;28;20200;-77
2022/05/05 11:28:23;;;;;;;12.70;11.50;;;17.80;99.90;;;;;;5072031;28;20203;-77
2022/05/05 11:30:50;;;;;;;13.70;12.40;;;17.80;99.90;;;;;;5071244;28;20242;-77
2022/05/05 11:33:21;;;;;;;16.83;15.50;;;17.80;99.90;;;;;;5071312;28;20314;-77
2022/05/05 11:35:57;;;;;;;19.20;17.67;;;17.80;99.90;;;;;;5071144;28;20255;-77
2022/05/05 11:38:24;;;;;;;18.53;17.00;;;17.80;99.90;;;;;;5071665;28;20204;-77
2022/05/05 11:41:00;;;;;;;10.80;9.80;;;17.70;99.90;;;;;;5075105;28;20335;-78
2022/05/05 11:46:14;;;;;;;15.20;13.77;;;18.20;99.90;;;;;;5076824;28;20181;-78
2022/05/05 11:48:44;;;;;;;16.63;15.27;;;18.30;99.90;;;;;;5075998;28;20655;-77
2022/05/05 11:51:11;;;;;;;16.63;15.27;;;18.40;99.90;;;;;;5075382;28;20205;-78
2022/05/05 11:53:38;;;;;;;16.77;15.47;;;18.40;99.90;;;;;;5074589;28;20284;-78
2022/05/05 11:56:13;;;;;;;16.77;15.50;;;18.40;99.90;;;;;;5074732;28;20750;-77
2022/05/05 12:01:38;;;;;;;16.87;15.57;;;18.10;99.90;;;;;;5091442;28;20228;-77
2022/05/05 12:04:09;;;;;;;16.50;15.20;;;18.00;99.90;;;;;;5075745;28;20268;-78
2022/05/05 12:06:39;;;;;;;17.60;16.13;;;17.90;99.90;;;;;;5075028;28;20193;-78
2022/05/05 12:09:08;;;;;;;15.00;13.87;;;17.90;99.90;;;;;;5075581;28;20666;-78
2022/05/05 12:11:36;;;;;;;16.30;15.00;;;17.80;99.90;;;;;;5075500;28;20244;-77
2022/05/05 12:14:06;;;;;;;17.90;16.50;;;17.90;99.90;;;;;;5075508;28;20196;-76
2022/05/05 12:16:35;;;;;;;15.03;13.73;;;17.80;99.90;;;;;;5075122;28;20206;-78
2022/05/05 12:19:09;;;;;;;16.03;14.70;;;17.90;99.90;;;;;;5075320;28;20262;-78
2022/05/05 12:21:39;;;;;;;13.90;12.80;;;18.00;99.90;;;;;;5070643;28;20643;-77
2022/05/05 12:24:06;;;;;;;14.27;13.17;;;18.20;99.90;;;;;;5070831;28;20204;-77
2022/05/05 12:26:35;;;;;;;15.07;13.97;;;18.30;99.90;;;;;;5071430;28;20298;-77
2022/05/05 12:29:02;;;;;;;14.80;13.70;;;18.20;99.90;;;;;;5073522;28;20288;-77
2022/05/05 12:31:29;;;;;;;14.07;12.87;;;18.20;99.90;;;;;;5073659;28;20213;-77
2022/05/05 12:33:57;;;;;;;13.23;12.23;;;18.00;99.90;;;;;;5074586;28;20200;-77
2022/05/05 12:36:28;;;;;;;13.90;12.80;;;18.30;99.90;;;;;;5074465;28;20573;-77
2022/05/05 12:39:13;;;;;;;10.23;9.00;;;18.20;99.90;;;;;;5074340;28;20200;-77
2022/05/05 12:41:59;;;;;;;8.90;8.00;;;18.00;99.90;;;;;;5074545;28;20229;-77
2022/05/05 12:44:32;;;;;;;9.93;8.93;;;17.70;99.90;;;;;;5074603;28;20208;-77
2022/05/05 12:47:03;;;;;;;9.20;7.87;;;17.70;99.90;;;;;;5074085;28;20201;-77
2022/05/05 12:49:37;;;;;;;11.30;10.20;;;17.80;99.90;;;;;;5074223;28;20199;-77
2022/05/05 12:52:04;;;;;;;10.83;9.47;;;17.70;99.90;;;;;;5074048;28;20218;-77
2022/05/05 13:00:04;;;;;;;9.20;8.30;;;17.90;99.90;;;;;;5090875;28;20188;-77
2022/05/05 13:02:31;;;;;;;7.73;6.90;;;18.10;99.90;;;;;;5073448;28;20344;-77
2022/05/05 13:04:57;;;;;;;8.23;7.47;;;18.20;99.90;;;;;;5074087;28;20662;-77
2022/05/05 13:07:24;;;;;;;9.53;8.33;;;18.40;99.90;;;;;;5073939;28;20220;-77
2022/05/05 13:09:53;;;;;;;10.53;8.27;;;18.40;99.90;;;;;;5073998;28;20703;-77
2022/05/05 13:12:20;;;;;;;9.00;8.10;;;18.30;99.90;;;;;;5073820;28;20623;-77
2022/05/05 13:14:47;;;;;;;10.77;9.70;;;18.40;99.90;;;;;;5073298;28;20202;-77
2022/05/05 13:17:14;;;;;;;9.80;7.70;;;18.30;99.90;;;;;;5073420;28;20198;-77
2022/05/05 13:19:42;;;;;;;7.80;6.67;;;18.50;99.90;;;;;;5073796;28;20679;-78
2022/05/05 13:22:09;;;;;;;8.10;7.30;;;18.70;99.90;;;;;;5073695;28;20690;-77
2022/05/05 13:24:36;;;;;;;11.83;10.83;;;18.60;99.90;;;;;;5073659;28;20205;-77
2022/05/05 13:27:05;;;;;;;10.70;9.60;;;18.60;99.90;;;;;;5073361;28;20230;-77
2022/05/05 13:29:32;;;;;;;8.13;7.33;;;18.50;99.90;;;;;;5073382;28;20667;-77
2022/05/05 13:31:59;;;;;;;9.17;8.20;;;18.60;99.90;;;;;;5073070;28;20271;-77
2022/05/05 13:34:26;;;;;;;13.80;12.60;;;18.80;99.90;;;;;;5073167;28;20201;-77
2022/05/05 13:36:53;;;;;;;18.47;16.77;;;18.90;99.90;;;;;;5073747;28;20200;-78